RJFKRJFO

Guest
Details From RJFK - KAGOSHIMA
To RJFO - OITA
Flight Number -
Tags generated
Created
Modified
Stats Distance 113 nm / 209 km
Max Altitude 4,800 ft / 1,463 m
Waypoints 3
Social Downloads 0
Likes 0
Share VATSIM

Download

Looking for another format? Having issues loading an existing format? Contact us
Advertisement - Login to hide

Notes

Basic altitude profile: - Ascent Rate: 2500ft/min - Ascent Speed: 250kts - Cruise Altitude: 35000ft - Cruise Speed: 420kts - Descent Rate: 1500ft/min - Descent Speed: 250kts Options: - Use NATs: yes - Use PACOTS: yes - Use low airways: yes - Use high airways: yes

Route

RJFK WOODY RJFO

ID Type Via Altitude Latitude Longitude Leg Dist Tot Dist Heading (true) Name
O RJFK APT - 0 ft / 0 m 31.80340˚ 130.71941˚ - 0 nm - KAGOSHIMA
WOODY FIX - 4,800 ft / 1,463 m 33.14189˚ 131.52758˚ 90 nm 90 nm 27° / 27° -
O RJFO APT - 0 ft / 0 m 33.47950˚ 131.73712˚ 22 nm 113 nm 27° / 27° OITA

Altitude Profile

Advertisement - Login to hide

RJFK

Details ICAO RJFK (KOJ)
Name KAGOSHIMA
Region Japan
Timezone Asia/Tokyo (UTC+9.0)
Stats Elevation 906 ft / 276 m (AMSL)
Location 31.803400° 130.719405°
Runways 1
Magnetic Variation 6.911° W

METAR

Not found

TAF

TAF RJFK 151115Z 1512/1618 35005KT 9999 FEW030 BECMG 1600/1603 32015KT BECMG 1612/1615 33005KT

Decode

Departure Runways

ID Width Length Bearing (true) Bearing (mag) Surface Threshold Offset Overrun Length
16 150 ft / 46 m 9,861 ft / 3,006 m 150.11° 157.02° Asphalt 0 ft / 0 m 200 ft / 61 m
34 150 ft / 46 m 9,861 ft / 3,006 m 330.11° 337.02° Asphalt 0 ft / 0 m 200 ft / 61 m

RJFO

Details ICAO RJFO (OIT)
Name OITA
Region Japan
Timezone Asia/Tokyo (UTC+9.0)
Stats Elevation 19 ft / 6 m (AMSL)
Location 33.479503° 131.737125°
Runways 1
Magnetic Variation 7.422° W

METAR

RJFO 151300Z 25003KT 210V270 CAVOK 08/05 Q1021

Decode

TAF

TAF RJFO 151106Z 1512/1618 26005KT 9999 FEW030 BKN040 BKN050 BECMG 1516/1518 31013KT TEMPO 1603/1609 31015G25KT

Decode

Destination Runways

ID Width Length Bearing (true) Bearing (mag) Surface Threshold Offset Overrun Length
01 150 ft / 46 m 9,869 ft / 3,008 m 0.42° 7.84° Asphalt 0 ft / 0 m 200 ft / 61 m
19 150 ft / 46 m 9,869 ft / 3,008 m 180.42° 187.84° Asphalt 0 ft / 0 m 200 ft / 61 m

Approach Navaids

Runway Type Ident Frequency Range Bearing (true) Bearing (mag) Slope Elevation
01 Localiser ITF 111.50 MHz 18 nm / 33 km 0.42° 7.84° - 19 ft / 6 m (AMSL)
01 Glidescope ITF 111.50 MHz 10 nm / 19 km 0.42° 7.84° 3.00° 54 ft / 16 m (AMSL)
01 DME ITF 111.50 MHz 18 nm / 33 km - - - 38 ft / 12 m (AMSL)